Observation data for Goodlett on 03/13/2018      Previous  Date  Next       Current Mesonet Observations  Soil Data  Daily Summary Page  Observations in Plain Language
KGDS 130500Z 16005KT 06/M06 A3026 RMK A01 T00581061  RH  042%=      5-min Rain = 0
KGDS 130505Z 15005KT 06/M06 A3026 RMK A01 T00581061  RH  043%=      5-min Rain = 0
KGDS 130510Z 14005KT 06/M06 A3026 RMK A01 T00581060  RH  043%=      5-min Rain = 0
KGDS 130515Z 13005KT 06/M06 A3026 RMK A01 T00601059  RH  043%=      5-min Rain = 0
KGDS 130520Z 14006KT 06/M06 A3026 RMK A01 T00611060  RH  042%=      5-min Rain = 0
KGDS 130525Z 14006KT 06/M06 A3025 RMK A01 T00601061  RH  042%=      5-min Rain = 0
KGDS 130530Z 14005KT 06/M06 A3025 RMK A01 T00591061  RH  042%=      5-min Rain = 0
KGDS 130535Z 14005KT 06/M06 A3025 RMK A01 T00591061  RH  043%=      5-min Rain = 0
KGDS 130540Z 14005KT 06/M06 A3026 RMK A01 T00591060  RH  043%=      5-min Rain = 0
KGDS 130545Z 14005KT 06/M06 A3025 RMK A01 T00601059  RH  043%=      5-min Rain = 0
KGDS 130550Z 15005KT 06/M06 A3025 RMK A01 T00601059  RH  043%=      5-min Rain = 0
KGDS 130555Z 16005KT 06/M06 A3025 RMK A01 T00591060  RH  043%=      5-min Rain = 0
KGDS 130600Z 15005KT 06/M06 A3026 RMK A01 T00571060  RH  043%=      5-min Rain = 0
KGDS 130605Z 14005KT 06/M06 A3026 RMK A01 T00551060  RH  044%=      5-min Rain = 0
KGDS 130610Z 13004KT 05/M06 A3026 RMK A01 T00531060  RH  045%=      5-min Rain = 0
KGDS 130615Z 14005KT 05/M06 A3026 RMK A01 T00521059  RH  045%=      5-min Rain = 0
KGDS 130620Z 14005KT 05/M06 A3026 RMK A01 T00531059  RH  045%=      5-min Rain = 0
KGDS 130625Z 14005KT 05/M06 A3026 RMK A01 T00531059  RH  045%=      5-min Rain = 0
KGDS 130630Z 12006KT 05/M06 A3025 RMK A01 T00531059  RH  045%=      5-min Rain = 0
KGDS 130635Z 12006KT 05/M06 A3026 RMK A01 T00501059  RH  046%=      5-min Rain = 0
KGDS 130640Z 11007KT 05/M06 A3026 RMK A01 T00501058  RH  046%=      5-min Rain = 0
KGDS 130645Z 11007KT 05/M06 A3025 RMK A01 T00501058  RH  046%=      5-min Rain = 0
KGDS 130650Z 11006KT 05/M06 A3025 RMK A01 T00491058  RH  047%=      5-min Rain = 0
KGDS 130655Z 10007KT 05/M06 A3026 RMK A01 T00471057  RH  047%=      5-min Rain = 0
KGDS 130700Z 10007KT 05/M06 A3026 RMK A01 T00461058  RH  047%=      5-min Rain = 0
KGDS 130705Z 09007KT 05/M06 A3026 RMK A01 T00481057  RH  047%=      5-min Rain = 0
KGDS 130710Z 08006KT 05/M06 A3026 RMK A01 T00461059  RH  047%=      5-min Rain = 0
KGDS 130715Z 07006KT 04/M06 A3026 RMK A01 T00381059  RH  049%=      5-min Rain = 0
KGDS 130720Z 07006KT 04/M06 A3026 RMK A01 T00391059  RH  049%=      5-min Rain = 0
KGDS 130725Z 07005KT 04/M06 A3026 RMK A01 T00371060  RH  050%=      5-min Rain = 0
KGDS 130730Z 06006KT 03/M06 A3026 RMK A01 T00321061  RH  051%=      5-min Rain = 0
KGDS 130735Z 05006KT 03/M06 A3026 RMK A01 T00301061  RH  052%=      5-min Rain = 0
KGDS 130740Z 05005KT 03/M06 A3026 RMK A01 T00291060  RH  052%=      5-min Rain = 0
KGDS 130745Z 05005KT 03/M06 A3026 RMK A01 T00301059  RH  053%=      5-min Rain = 0
KGDS 130750Z 04006KT 03/M06 A3026 RMK A01 T00301059  RH  053%=      5-min Rain = 0
KGDS 130755Z 06006KT 03/M06 A3026 RMK A01 T00271058  RH  054%=      5-min Rain = 0
KGDS 130800Z 06005KT 03/M06 A3026 RMK A01 T00281056  RH  055%=      5-min Rain = 0
KGDS 130805Z 06006KT 03/M06 A3026 RMK A01 T00281056  RH  055%=      5-min Rain = 0
KGDS 130810Z 05006KT 03/M06 A3026 RMK A01 T00261056  RH  055%=      5-min Rain = 0
KGDS 130815Z 05005KT 03/M05 A3026 RMK A01 T00261052  RH  057%=      5-min Rain = 0
KGDS 130820Z 04005KT 03/M06 A3026 RMK A01 T00251055  RH  056%=      5-min Rain = 0
KGDS 130825Z 04006KT 02/M06 A3026 RMK A01 T00191058  RH  057%=      5-min Rain = 0
KGDS 130830Z 04005KT 02/M06 A3026 RMK A01 T00171057  RH  058%=      5-min Rain = 0
KGDS 130835Z 04005KT 02/M06 A3026 RMK A01 T00161059  RH  058%=      5-min Rain = 0
KGDS 130840Z 05004KT 02/M06 A3026 RMK A01 T00171057  RH  058%=      5-min Rain = 0
KGDS 130845Z 06005KT 02/M06 A3026 RMK A01 T00211056  RH  057%=      5-min Rain = 0
KGDS 130850Z 05005KT 02/M06 A3026 RMK A01 T00221057  RH  057%=      5-min Rain = 0
KGDS 130855Z 05005KT 02/M06 A3026 RMK A01 T00221057  RH  056%=      5-min Rain = 0
KGDS 130900Z 04005KT 02/M06 A3026 RMK A01 T00201058  RH  057%=      5-min Rain = 0
KGDS 130905Z 03006KT 01/M06 A3026 RMK A01 T00131059  RH  059%=      5-min Rain = 0
KGDS 130910Z 04005KT 01/M06 A3025 RMK A01 T00101057  RH  062%=      5-min Rain = 0
KGDS 130915Z 05005KT 01/M05 A3025 RMK A01 T00121054  RH  062%=      5-min Rain = 0
KGDS 130920Z 04006KT 01/M05 A3026 RMK A01 T00141054  RH  061%=      5-min Rain = 0
KGDS 130925Z 03006KT 01/M06 A3026 RMK A01 T00091057  RH  062%=      5-min Rain = 0
KGDS 130930Z 03005KT 01/M06 A3026 RMK A01 T00061056  RH  064%=      5-min Rain = 0
KGDS 130935Z 01006KT 01/M06 A3026 RMK A01 T00061056  RH  064%=      5-min Rain = 0
KGDS 130940Z 01006KT 00/M06 A3027 RMK A01 T00031057  RH  065%=      5-min Rain = 0
KGDS 130945Z 01005KT 00/M06 A3027 RMK A01 T00021057  RH  065%=      5-min Rain = 0
KGDS 130950Z 02005KT 00/06 A3027 RMK A01 T00000-58  RH  066%=      5-min Rain = 0
KGDS 130955Z 02005KT 00/M06 A3027 RMK A01 T00011056  RH  066%=      5-min Rain = 0
KGDS 131000Z 03005KT 00/M06 A3027 RMK A01 T00041055  RH  065%=      5-min Rain = 0
KGDS 131005Z 03004KT 01/M05 A3027 RMK A01 T00071054  RH  064%=      5-min Rain = 0
KGDS 131010Z 02004KT 01/M05 A3027 RMK A01 T00101054  RH  063%=      5-min Rain = 0
KGDS 131015Z 03004KT 01/M05 A3027 RMK A01 T00121054  RH  062%=      5-min Rain = 0
KGDS 131020Z 03004KT 01/M05 A3027 RMK A01 T00131054  RH  062%=      5-min Rain = 0
KGDS 131025Z 03004KT 01/M06 A3027 RMK A01 T00131055  RH  061%=      5-min Rain = 0
KGDS 131030Z 03004KT 01/M06 A3027 RMK A01 T00131055  RH  061%=      5-min Rain = 0
KGDS 131035Z 04003KT 01/M05 A3027 RMK A01 T00141054  RH  061%=      5-min Rain = 0
KGDS 131040Z 03003KT 02/M05 A3027 RMK A01 T00151054  RH  061%=      5-min Rain = 0
KGDS 131045Z 03004KT 02/M05 A3027 RMK A01 T00151054  RH  061%=      5-min Rain = 0
KGDS 131050Z 02004KT 01/M06 A3028 RMK A01 T00121057  RH  061%=      5-min Rain = 0
KGDS 131055Z 02004KT 01/M06 A3028 RMK A01 T00071058  RH  062%=      5-min Rain = 0
KGDS 131100Z 01003KT 01/M06 A3028 RMK A01 T00081055  RH  063%=      5-min Rain = 0
KGDS 131105Z 36004KT 01/M06 A3028 RMK A01 T00091057  RH  062%=      5-min Rain = 0
KGDS 131110Z 35006KT 01/M06 A3029 RMK A01 T00051057  RH  064%=      5-min Rain = 0
KGDS 131115Z 35006KT 00/M06 A3029 RMK A01 T00041056  RH  065%=      5-min Rain = 0
KGDS 131120Z 35005KT 00/M06 A3029 RMK A01 T00041055  RH  065%=      5-min Rain = 0
KGDS 131125Z 34005KT 01/M06 A3029 RMK A01 T00051056  RH  064%=      5-min Rain = 0
KGDS 131130Z 34006KT 00/M06 A303 RMK A01 T00041059  RH  063%=      5-min Rain = 0
KGDS 131135Z 35006KT 00/M06 A303 RMK A01 T00031059  RH  064%=      5-min Rain = 0
KGDS 131140Z 35006KT 00/M06 A303 RMK A01 T00031059  RH  064%=      5-min Rain = 0
KGDS 131145Z 34006KT 00/M06 A303 RMK A01 T00021059  RH  064%=      5-min Rain = 0
KGDS 131150Z 34006KT 00/M06 A303 RMK A01 T00031057  RH  065%=      5-min Rain = 0
KGDS 131155Z 34007KT 00/M06 A303 RMK A01 T00041057  RH  065%=      5-min Rain = 0
KGDS 131200Z 34007KT 00/M06 A3031 RMK A01 T00031058  RH  064%=      5-min Rain = 0
KGDS 131205Z 34006KT 00/M06 A3031 RMK A01 T00041058  RH  064%=      5-min Rain = 0
KGDS 131210Z 36006KT 01/M06 A3031 RMK A01 T00051058  RH  063%=      5-min Rain = 0
KGDS 131215Z 00006KT 00/M06 A3031 RMK A01 T00031060  RH  063%=      5-min Rain = 0
KGDS 131220Z 01006KT 00/M06 A3031 RMK A01 T00011060  RH  064%=      5-min Rain = 0
KGDS 131225Z 01006KT 00/M06 A3031 RMK A01 T00041059  RH  063%=      5-min Rain = 0
KGDS 131230Z 01006KT 01/M06 A3031 RMK A01 T00061058  RH  063%=      5-min Rain = 0
KGDS 131235Z 01006KT 01/M06 A3032 RMK A01 T00051059  RH  063%=      5-min Rain = 0
KGDS 131240Z 01006KT 00/M06 A3032 RMK A01 T00041058  RH  064%=      5-min Rain = 0
KGDS 131245Z 00006KT 00/M06 A3032 RMK A01 T00041058  RH  064%=      5-min Rain = 0
KGDS 131250Z 01006KT 00/M06 A3032 RMK A01 T00041059  RH  063%=      5-min Rain = 0
KGDS 131255Z 01006KT 00/M06 A3032 RMK A01 T00011060  RH  064%=      5-min Rain = 0
KGDS 131300Z 01006KT M00/M06 A3032 RMK A01 T10011061  RH  065%=      5-min Rain = 0
KGDS 131305Z 01006KT M00/M06 A3032 RMK A01 T10021061  RH  065%=      5-min Rain = 0
KGDS 131310Z 01006KT M00/M06 A3033 RMK A01 T10021061  RH  065%=      5-min Rain = 0
KGDS 131315Z 01006KT 00/M06 A3033 RMK A01 T00021059  RH  064%=      5-min Rain = 0
KGDS 131320Z 01006KT 01/M06 A3033 RMK A01 T00051058  RH  063%=      5-min Rain = 0
KGDS 131325Z 01005KT 01/M06 A3033 RMK A01 T00091058  RH  062%=      5-min Rain = 0
KGDS 131330Z 01006KT 01/M06 A3034 RMK A01 T00131057  RH  060%=      5-min Rain = 0
KGDS 131335Z 01006KT 02/M06 A3034 RMK A01 T00161057  RH  059%=      5-min Rain = 0
KGDS 131340Z 02006KT 02/M06 A3034 RMK A01 T00191056  RH  059%=      5-min Rain = 0
KGDS 131345Z 02006KT 02/M06 A3034 RMK A01 T00211055  RH  058%=      5-min Rain = 0
KGDS 131350Z 02006KT 03/M05 A3034 RMK A01 T00251053  RH  057%=      5-min Rain = 0
KGDS 131355Z 03005KT 03/M05 A3034 RMK A01 T00331052  RH  054%=      5-min Rain = 0
KGDS 131400Z 03005KT 04/M06 A3035 RMK A01 T00381055  RH  051%=      5-min Rain = 0
KGDS 131405Z 03006KT 04/M06 A3035 RMK A01 T00431058  RH  048%=      5-min Rain = 0
KGDS 131410Z 03006KT 05/M06 A3035 RMK A01 T00461057  RH  047%=      5-min Rain = 0
KGDS 131415Z 04007KT 05/M06 A3035 RMK A01 T00501056  RH  047%=      5-min Rain = 0
KGDS 131420Z 04007KT 05/M06 A3035 RMK A01 T00511055  RH  047%=      5-min Rain = 0
KGDS 131425Z 04008KT 05/M05 A3035 RMK A01 T00541054  RH  046%=      5-min Rain = 0
KGDS 131430Z 05008KT 06/M05 A3036 RMK A01 T00581054  RH  045%=      5-min Rain = 0
KGDS 131435Z 04007KT 06/M06 A3036 RMK A01 T00641055  RH  043%=      5-min Rain = 0
KGDS 131440Z 04007KT 07/M06 A3037 RMK A01 T00671057  RH  041%=      5-min Rain = 0
KGDS 131445Z 04008KT 07/M06 A3037 RMK A01 T00691060  RH  040%=      5-min Rain = 0
KGDS 131450Z 05007KT 07/M06 A3037 RMK A01 T00711059  RH  040%=      5-min Rain = 0
KGDS 131455Z 06008KT 07/M06 A3037 RMK A01 T00731062  RH  038%=      5-min Rain = 0
KGDS 131500Z 05007KT 08/M06 A3037 RMK A01 T00761062  RH  037%=      5-min Rain = 0
KGDS 131505Z 06006KT 08/M07 A3037 RMK A01 T00781066  RH  036%=      5-min Rain = 0
KGDS 131510Z 06006G11KT 08/M07 A3038 RMK A01 T00811066  RH  035%=      5-min Rain = 0
KGDS 131515Z 06007KT 08/M07 A3038 RMK A01 T00831067  RH  034%=      5-min Rain = 0
KGDS 131520Z 07007KT 09/M07 A3037 RMK A01 T00861068  RH  033%=      5-min Rain = 0
KGDS 131525Z 08006KT 09/M07 A3037 RMK A01 T00861066  RH  034%=      5-min Rain = 0
KGDS 131530Z 08006KT 09/M07 A3037 RMK A01 T00901070  RH  032%=      5-min Rain = 0
KGDS 131535Z 07006KT 09/M07 A3038 RMK A01 T00931068  RH  032%=      5-min Rain = 0
KGDS 131540Z 07006KT 09/M07 A3038 RMK A01 T00941071  RH  031%=      5-min Rain = 0
KGDS 131545Z 08007KT 10/M07 A3038 RMK A01 T00981068  RH  031%=      5-min Rain = 0
KGDS 131550Z 08008KT 10/M07 A3038 RMK A01 T01001073  RH  029%=      5-min Rain = 0
KGDS 131555Z 08008KT 10/M07 A3038 RMK A01 T01011074  RH  029%=      5-min Rain = 0
KGDS 131600Z 08009KT 11/M07 A3038 RMK A01 T01071074  RH  028%=      5-min Rain = 0
KGDS 131605Z 06008KT 11/M08 A3038 RMK A01 T01051077  RH  027%=      5-min Rain = 0
KGDS 131610Z 07008KT 11/M08 A3038 RMK A01 T01061076  RH  027%=      5-min Rain = 0
KGDS 131615Z 09008KT 11/M08 A3038 RMK A01 T01061079  RH  027%=      5-min Rain = 0
KGDS 131620Z 08008KT 11/M08 A3038 RMK A01 T01071079  RH  027%=      5-min Rain = 0
KGDS 131625Z 06008KT 11/M08 A3038 RMK A01 T01091078  RH  026%=      5-min Rain = 0
KGDS 131630Z 07007KT 11/M08 A3038 RMK A01 T01101077  RH  026%=      5-min Rain = 0
KGDS 131635Z 06006KT 11/M07 A3038 RMK A01 T01141074  RH  026%=      5-min Rain = 0
KGDS 131640Z 08007KT 12/M08 A3038 RMK A01 T01151076  RH  026%=      5-min Rain = 0
KGDS 131645Z 09006KT 12/M08 A3038 RMK A01 T01231075  RH  025%=      5-min Rain = 0
KGDS 131650Z 11005KT 12/M08 A3038 RMK A01 T01191077  RH  025%=      5-min Rain = 0
KGDS 131655Z 09006KT 12/M08 A3038 RMK A01 T01211077  RH  025%=      5-min Rain = 0
KGDS 131700Z 07007KT 12/M08 A3038 RMK A01 T01241079  RH  024%=      5-min Rain = 0
KGDS 131705Z 07007KT 12/M08 A3038 RMK A01 T01231083  RH  023%=      5-min Rain = 0
KGDS 131710Z 07007KT 12/M08 A3038 RMK A01 T01231084  RH  023%=      5-min Rain = 0
KGDS 131715Z 07008KT 12/M08 A3037 RMK A01 T01241078  RH  024%=      5-min Rain = 0
KGDS 131720Z 07007G13KT 13/M08 A3037 RMK A01 T01261075  RH  024%=      5-min Rain = 0
KGDS 131725Z 06008KT 13/M07 A3037 RMK A01 T01301072  RH  024%=      5-min Rain = 0
KGDS 131730Z 09007KT 13/M07 A3037 RMK A01 T01301074  RH  024%=      5-min Rain = 0
KGDS 131735Z 08008KT 13/M07 A3036 RMK A01 T01331074  RH  023%=      5-min Rain = 0
KGDS 131740Z 04007KT 13/M07 A3036 RMK A01 T01331074  RH  023%=      5-min Rain = 0
KGDS 131745Z 06006KT 13/M08 A3036 RMK A01 T01321075  RH  023%=      5-min Rain = 0
KGDS 131750Z 03007KT 14/M07 A3036 RMK A01 T01351072  RH  023%=      5-min Rain = 0
KGDS 131755Z 06004G10KT 13/M07 A3036 RMK A01 T01321073  RH  024%=      5-min Rain = 0
KGDS 131800Z 07005KT 14/M07 A3036 RMK A01 T01361071  RH  023%=      5-min Rain = 0
KGDS 131805Z 09006KT 14/M07 A3036 RMK A01 T01361069  RH  024%=      5-min Rain = 0
KGDS 131810Z 07005G10KT 14/M07 A3035 RMK A01 T01391068  RH  024%=      5-min Rain = 0
KGDS 131815Z 06007G12KT 14/M07 A3035 RMK A01 T01421069  RH  023%=      5-min Rain = 0
KGDS 131820Z 07005KT 14/M07 A3035 RMK A01 T01391069  RH  023%=      5-min Rain = 0
KGDS 131825Z 06005G10KT 14/M07 A3035 RMK A01 T01441068  RH  023%=      5-min Rain = 0
KGDS 131830Z 09006G11KT 14/M07 A3035 RMK A01 T01441069  RH  023%=      5-min Rain = 0
KGDS 131835Z 07006G11KT 14/M07 A3034 RMK A01 T01431066  RH  023%=      5-min Rain = 0
KGDS 131840Z 08007KT 14/M07 A3034 RMK A01 T01431066  RH  023%=      5-min Rain = 0
KGDS 131845Z 08008KT 15/M06 A3034 RMK A01 T01471064  RH  023%=      5-min Rain = 0
KGDS 131850Z 09007KT 15/M06 A3033 RMK A01 T01471064  RH  023%=      5-min Rain = 0
KGDS 131855Z 06008G13KT 15/M06 A3033 RMK A01 T01501064  RH  022%=      5-min Rain = 0
KGDS 131900Z 04008G13KT 15/M07 A3033 RMK A01 T01451066  RH  023%=      5-min Rain = 0
KGDS 131905Z 03005G11KT 15/M07 A3033 RMK A01 T01461065  RH  023%=      5-min Rain = 0
KGDS 131910Z 08009KT 15/M06 A3033 RMK A01 T01491064  RH  023%=      5-min Rain = 0
KGDS 131915Z 08006KT 15/M06 A3032 RMK A01 T01481064  RH  023%=      5-min Rain = 0
KGDS 131920Z 06010KT 15/M06 A3032 RMK A01 T01531064  RH  022%=      5-min Rain = 0
KGDS 131925Z 06007KT 15/M06 A3032 RMK A01 T01531064  RH  022%=      5-min Rain = 0
KGDS 131930Z 05008G13KT 15/M07 A3032 RMK A01 T01521065  RH  022%=      5-min Rain = 0
KGDS 131935Z 05010KT 15/M06 A3032 RMK A01 T01541064  RH  022%=      5-min Rain = 0
KGDS 131940Z 06005G10KT 16/M07 A3032 RMK A01 T01551065  RH  022%=      5-min Rain = 0
KGDS 131945Z 04007G13KT 16/M07 A3032 RMK A01 T01561065  RH  021%=      5-min Rain = 0
KGDS 131950Z 03008KT 16/M07 A3032 RMK A01 T01551066  RH  022%=      5-min Rain = 0
KGDS 131955Z 01003KT 15/M07 A3031 RMK A01 T01531066  RH  022%=      5-min Rain = 0
KGDS 132000Z 02009G14KT 16/M07 A3031 RMK A01 T01581066  RH  021%=      5-min Rain = 0
KGDS 132005Z 04008KT 16/M07 A3031 RMK A01 T01581066  RH  021%=      5-min Rain = 0
KGDS 132010Z 00007KT 16/M07 A3031 RMK A01 T01571067  RH  021%=      5-min Rain = 0
KGDS 132015Z 05009G15KT 16/M07 A303 RMK A01 T01601066  RH  021%=      5-min Rain = 0
KGDS 132020Z 07008G14KT 16/M07 A303 RMK A01 T01581067  RH  021%=      5-min Rain = 0
KGDS 132025Z 01006KT 16/M07 A303 RMK A01 T01601066  RH  021%=      5-min Rain = 0
KGDS 132030Z 03007KT 16/M07 A303 RMK A01 T01601067  RH  021%=      5-min Rain = 0
KGDS 132035Z 03009G16KT 16/M07 A3029 RMK A01 T01621066  RH  020%=      5-min Rain = 0
KGDS 132040Z 04007KT 16/M07 A3029 RMK A01 T01611066  RH  021%=      5-min Rain = 0
KGDS 132045Z 04008G14KT 17/M07 A3029 RMK A01 T01661065  RH  020%=      5-min Rain = 0
KGDS 132050Z 03010G15KT 17/M07 A3029 RMK A01 T01691065  RH  020%=      5-min Rain = 0
KGDS 132055Z 05008G14KT 17/M07 A3028 RMK A01 T01691066  RH  020%=      5-min Rain = 0
KGDS 132100Z 05010G15KT 17/M07 A3028 RMK A01 T01671065  RH  020%=      5-min Rain = 0
KGDS 132105Z 05008KT 17/M07 A3029 RMK A01 T01661066  RH  020%=      5-min Rain = 0
KGDS 132110Z 04009KT 17/M07 A3029 RMK A01 T01671065  RH  020%=      5-min Rain = 0
KGDS 132115Z 06008G14KT 17/M07 A3028 RMK A01 T01661065  RH  020%=      5-min Rain = 0
KGDS 132120Z 07009KT 17/M07 A3028 RMK A01 T01681065  RH  020%=      5-min Rain = 0
KGDS 132125Z 07009KT 17/M07 A3028 RMK A01 T01661065  RH  020%=      5-min Rain = 0
KGDS 132130Z 06010G16KT 17/M07 A3028 RMK A01 T01711066  RH  019%=      5-min Rain = 0
KGDS 132135Z 05009KT 17/M07 A3028 RMK A01 T01661067  RH  020%=      5-min Rain = 0
KGDS 132140Z 05009G17KT 17/M07 A3028 RMK A01 T01661069  RH  020%=      5-min Rain = 0
KGDS 132145Z 05010G15KT 17/M07 A3028 RMK A01 T01671069  RH  019%=      5-min Rain = 0
KGDS 132150Z 06010KT 17/M07 A3028 RMK A01 T01701069  RH  019%=      5-min Rain = 0
KGDS 132155Z 02009G14KT 17/M07 A3028 RMK A01 T01701071  RH  019%=      5-min Rain = 0
KGDS 132200Z 03011G17KT 17/M07 A3028 RMK A01 T01711070  RH  019%=      5-min Rain = 0
KGDS 132205Z 03012KT 17/M07 A3028 RMK A01 T01671073  RH  019%=      5-min Rain = 0
KGDS 132210Z 07007G12KT 17/M07 A3028 RMK A01 T01651071  RH  019%=      5-min Rain = 0
KGDS 132215Z 05011G16KT 17/M07 A3027 RMK A01 T01671071  RH  019%=      5-min Rain = 0
KGDS 132220Z 03009KT 16/M07 A3027 RMK A01 T01641072  RH  019%=      5-min Rain = 0
KGDS 132225Z 06012KT 17/M07 A3027 RMK A01 T01651071  RH  019%=      5-min Rain = 0
KGDS 132230Z 04009G15KT 17/M07 A3027 RMK A01 T01661070  RH  019%=      5-min Rain = 0
KGDS 132235Z 03011G17KT 17/M07 A3027 RMK A01 T01651070  RH  020%=      5-min Rain = 0
KGDS 132240Z 04012G17KT 16/M07 A3027 RMK A01 T01631070  RH  020%=      5-min Rain = 0
KGDS 132245Z 02011KT 16/M07 A3027 RMK A01 T01631070  RH  020%=      5-min Rain = 0
KGDS 132250Z 04011G16KT 16/M07 A3027 RMK A01 T01641071  RH  020%=      5-min Rain = 0
KGDS 132255Z 04011G17KT 16/M07 A3027 RMK A01 T01621072  RH  020%=      5-min Rain = 0
KGDS 132300Z 04011G16KT 16/M07 A3027 RMK A01 T01621073  RH  020%=      5-min Rain = 0
KGDS 132305Z 04012KT 16/M07 A3027 RMK A01 T01601074  RH  020%=      5-min Rain = 0
KGDS 132310Z 03012G18KT 16/M07 A3028 RMK A01 T01591074  RH  020%=      5-min Rain = 0
KGDS 132315Z 06011KT 16/M07 A3028 RMK A01 T01601073  RH  020%=      5-min Rain = 0
KGDS 132320Z 06010KT 16/M07 A3028 RMK A01 T01581073  RH  020%=      5-min Rain = 0
KGDS 132325Z 05010KT 16/M07 A3028 RMK A01 T01561073  RH  020%=      5-min Rain = 0
KGDS 132330Z 05010KT 15/M07 A3028 RMK A01 T01531072  RH  021%=      5-min Rain = 0
KGDS 132335Z 04010KT 15/M07 A3028 RMK A01 T01521071  RH  021%=      5-min Rain = 0
KGDS 132340Z 04011KT 15/M07 A3028 RMK A01 T01511071  RH  021%=      5-min Rain = 0
KGDS 132345Z 04011KT 15/M07 A3028 RMK A01 T01511070  RH  021%=      5-min Rain = 0
KGDS 132350Z 04012KT 15/M07 A3028 RMK A01 T01481071  RH  022%=      5-min Rain = 0
KGDS 132355Z 04010KT 15/M07 A3028 RMK A01 T01451070  RH  022%=      5-min Rain = 0
KGDS 140000Z 05011KT 14/M07 A3028 RMK A01 T01441071  RH  022%=      5-min Rain = 0
KGDS 140005Z 06012KT 14/M07 A3028 RMK A01 T01431071  RH  022%=      5-min Rain = 0
KGDS 140010Z 05011KT 14/M07 A3028 RMK A01 T01421071  RH  022%=      5-min Rain = 0
KGDS 140015Z 05010KT 14/M07 A3028 RMK A01 T01411072  RH  022%=      5-min Rain = 0
KGDS 140020Z 04010KT 14/M07 A3028 RMK A01 T01401072  RH  023%=      5-min Rain = 0
KGDS 140025Z 05010KT 14/M07 A3028 RMK A01 T01391072  RH  023%=      5-min Rain = 0
KGDS 140030Z 05009KT 14/M07 A3028 RMK A01 T01381072  RH  023%=      5-min Rain = 0
KGDS 140035Z 05009KT 14/M07 A3028 RMK A01 T01361072  RH  023%=      5-min Rain = 0
KGDS 140040Z 05008KT 13/M07 A3029 RMK A01 T01331072  RH  024%=      5-min Rain = 0
KGDS 140045Z 05007KT 13/M07 A3029 RMK A01 T01301072  RH  024%=      5-min Rain = 0
KGDS 140050Z 05007KT 13/M07 A3029 RMK A01 T01281072  RH  024%=      5-min Rain = 0
KGDS 140055Z 05007KT 12/M07 A3029 RMK A01 T01241073  RH  025%=      5-min Rain = 0
KGDS 140100Z 05006KT 12/M07 A3029 RMK A01 T01191074  RH  025%=      5-min Rain = 0
KGDS 140105Z 05006KT 11/M07 A3029 RMK A01 T01141074  RH  026%=      5-min Rain = 0
KGDS 140110Z 04006KT 11/M07 A3029 RMK A01 T01121074  RH  027%=      5-min Rain = 0
KGDS 140115Z 05006KT 11/M08 A3029 RMK A01 T01081075  RH  027%=      5-min Rain = 0
KGDS 140120Z 05006KT 11/M08 A3029 RMK A01 T01051076  RH  028%=      5-min Rain = 0
KGDS 140125Z 04005KT 10/M08 A3029 RMK A01 T01041076  RH  028%=      5-min Rain = 0
KGDS 140130Z 05007KT 10/M08 A3029 RMK A01 T01041075  RH  028%=      5-min Rain = 0
KGDS 140135Z 05007KT 11/M07 A3029 RMK A01 T01081074  RH  027%=      5-min Rain = 0
KGDS 140140Z 05007KT 11/M08 A3029 RMK A01 T01061075  RH  028%=      5-min Rain = 0
KGDS 140145Z 05007KT 10/M07 A3029 RMK A01 T01041074  RH  028%=      5-min Rain = 0
KGDS 140150Z 05006KT 10/M08 A3029 RMK A01 T01021075  RH  028%=      5-min Rain = 0
KGDS 140155Z 06006KT 10/M08 A3029 RMK A01 T00981076  RH  029%=      5-min Rain = 0
KGDS 140200Z 05005KT 10/M08 A303 RMK A01 T00951077  RH  029%=      5-min Rain = 0
KGDS 140205Z 05005KT 09/M08 A303 RMK A01 T00921077  RH  030%=      5-min Rain = 0
KGDS 140210Z 05005KT 09/M08 A303 RMK A01 T00921076  RH  030%=      5-min Rain = 0
KGDS 140215Z 05005KT 09/M08 A303 RMK A01 T00921075  RH  030%=      5-min Rain = 0
KGDS 140220Z 05005KT 09/M08 A303 RMK A01 T00901076  RH  031%=      5-min Rain = 0
KGDS 140225Z 05004KT 09/M08 A3031 RMK A01 T00901075  RH  031%=      5-min Rain = 0
KGDS 140230Z 05004KT 09/M08 A3031 RMK A01 T00891075  RH  031%=      5-min Rain = 0
KGDS 140235Z 05004KT 09/M07 A3031 RMK A01 T00901074  RH  031%=      5-min Rain = 0
KGDS 140240Z 06004KT 09/M07 A3031 RMK A01 T00911074  RH  031%=      5-min Rain = 0
KGDS 140245Z 06005KT 09/M07 A3031 RMK A01 T00911074  RH  031%=      5-min Rain = 0
KGDS 140250Z 05005KT 09/M07 A3031 RMK A01 T00901074  RH  031%=      5-min Rain = 0
KGDS 140255Z 05004KT 09/M07 A3032 RMK A01 T00891074  RH  031%=      5-min Rain = 0
KGDS 140300Z 06004KT 09/M07 A3032 RMK A01 T00901073  RH  031%=      5-min Rain = 0
KGDS 140305Z 06005KT 09/M08 A3032 RMK A01 T00901075  RH  031%=      5-min Rain = 0
KGDS 140310Z 06004KT 08/M08 A3032 RMK A01 T00841076  RH  032%=      5-min Rain = 0
KGDS 140315Z 06004KT 09/M07 A3032 RMK A01 T00851074  RH  032%=      5-min Rain = 0
KGDS 140320Z 06005KT 09/M08 A3032 RMK A01 T00851075  RH  032%=      5-min Rain = 0
KGDS 140325Z 07006KT 08/M08 A3032 RMK A01 T00771076  RH  033%=      5-min Rain = 0
KGDS 140330Z 08006KT 08/M08 A3032 RMK A01 T00751076  RH  034%=      5-min Rain = 0
KGDS 140335Z 09006KT 07/M08 A3032 RMK A01 T00731077  RH  034%=      5-min Rain = 0
KGDS 140340Z 10006KT 08/M07 A3032 RMK A01 T00751074  RH  034%=      5-min Rain = 0
KGDS 140345Z 10006KT 08/M07 A3032 RMK A01 T00801072  RH  034%=      5-min Rain = 0
KGDS 140350Z 11006KT 08/M07 A3032 RMK A01 T00761074  RH  034%=      5-min Rain = 0
KGDS 140355Z 12006KT 07/M07 A3032 RMK A01 T00711073  RH  036%=      5-min Rain = 0
KGDS 140400Z 11007KT 07/M07 A3032 RMK A01 T00711072  RH  036%=      5-min Rain = 0
KGDS 140405Z 12006KT 07/M07 A3032 RMK A01 T00721073  RH  035%=      5-min Rain = 0
KGDS 140410Z 12006KT 07/M07 A3032 RMK A01 T00691073  RH  036%=      5-min Rain = 0
KGDS 140415Z 12006KT 07/M07 A3032 RMK A01 T00731073  RH  035%=      5-min Rain = 0
KGDS 140420Z 12006KT 07/M08 A3032 RMK A01 T00731075  RH  035%=      5-min Rain = 0
KGDS 140425Z 12006KT 07/M08 A3032 RMK A01 T00681075  RH  036%=      5-min Rain = 0
KGDS 140430Z 12006KT 07/M08 A3032 RMK A01 T00671075  RH  036%=      5-min Rain = 0
KGDS 140435Z 12006KT 07/M08 A3033 RMK A01 T00681076  RH  035%=      5-min Rain = 0
KGDS 140440Z 11007KT 07/M08 A3033 RMK A01 T00691075  RH  035%=      5-min Rain = 0
KGDS 140445Z 12007KT 07/M08 A3033 RMK A01 T00721075  RH  035%=      5-min Rain = 0
KGDS 140450Z 13006KT 07/M08 A3033 RMK A01 T00671077  RH  035%=      5-min Rain = 0
KGDS 140455Z 14006KT 06/M08 A3033 RMK A01 T00621078  RH  036%=      5-min Rain = 0

Page generated in 0.009 seconds.